sensor_id;sensor_type;location;lat;lon;timestamp;P1;durP1;ratioP1;P2;durP2;ratioP2
48667;SDS011;34453;52.198;5.004;2023-02-14T00:00:53;42.53;;;26.42;;
48667;SDS011;34453;52.198;5.004;2023-02-14T00:03:18;47.00;;;26.35;;
48667;SDS011;34453;52.198;5.004;2023-02-14T00:05:43;49.63;;;27.42;;
48667;SDS011;34453;52.198;5.004;2023-02-14T00:08:08;40.67;;;24.48;;
48667;SDS011;34453;52.198;5.004;2023-02-14T00:10:34;41.88;;;24.88;;
48667;SDS011;34453;52.198;5.004;2023-02-14T00:12:59;49.85;;;26.42;;
48667;SDS011;34453;52.198;5.004;2023-02-14T00:15:24;38.25;;;24.10;;
48667;SDS011;34453;52.198;5.004;2023-02-14T00:17:53;38.67;;;24.38;;
48667;SDS011;34453;52.198;5.004;2023-02-14T00:20:20;42.90;;;25.40;;
48667;SDS011;34453;52.198;5.004;2023-02-14T00:22:45;45.88;;;28.23;;
48667;SDS011;34453;52.198;5.004;2023-02-14T00:25:11;45.35;;;27.45;;
48667;SDS011;34453;52.198;5.004;2023-02-14T00:27:36;47.25;;;27.80;;
48667;SDS011;34453;52.198;5.004;2023-02-14T00:30:02;47.03;;;29.10;;
48667;SDS011;34453;52.198;5.004;2023-02-14T00:32:28;54.00;;;29.65;;
48667;SDS011;34453;52.198;5.004;2023-02-14T00:34:54;50.78;;;29.75;;
48667;SDS011;34453;52.198;5.004;2023-02-14T00:37:19;52.58;;;28.50;;
48667;SDS011;34453;52.198;5.004;2023-02-14T00:39:45;51.10;;;29.88;;
48667;SDS011;34453;52.198;5.004;2023-02-14T00:42:10;44.60;;;28.38;;
48667;SDS011;34453;52.198;5.004;2023-02-14T00:44:37;54.38;;;32.92;;
48667;SDS011;34453;52.198;5.004;2023-02-14T00:47:03;53.75;;;30.52;;
48667;SDS011;34453;52.198;5.004;2023-02-14T00:49:28;54.88;;;29.33;;
48667;SDS011;34453;52.198;5.004;2023-02-14T00:51:53;45.67;;;28.60;;
48667;SDS011;34453;52.198;5.004;2023-02-14T00:54:18;48.72;;;28.15;;
48667;SDS011;34453;52.198;5.004;2023-02-14T00:56:44;55.80;;;32.83;;
48667;SDS011;34453;52.198;5.004;2023-02-14T00:59:09;55.08;;;29.80;;
48667;SDS011;34453;52.198;5.004;2023-02-14T01:01:34;58.78;;;32.15;;
48667;SDS011;34453;52.198;5.004;2023-02-14T01:03:59;55.42;;;30.02;;
48667;SDS011;34453;52.198;5.004;2023-02-14T01:06:25;54.97;;;30.88;;
48667;SDS011;34453;52.198;5.004;2023-02-14T01:08:50;51.88;;;29.33;;
48667;SDS011;34453;52.198;5.004;2023-02-14T01:11:16;48.08;;;27.30;;
48667;SDS011;34453;52.198;5.004;2023-02-14T01:13:42;52.95;;;29.58;;
48667;SDS011;34453;52.198;5.004;2023-02-14T01:16:08;49.00;;;28.05;;
48667;SDS011;34453;52.198;5.004;2023-02-14T01:18:34;46.13;;;28.80;;
48667;SDS011;34453;52.198;5.004;2023-02-14T01:21:09;43.92;;;26.23;;
48667;SDS011;34453;52.198;5.004;2023-02-14T01:23:35;47.70;;;25.60;;
48667;SDS011;34453;52.198;5.004;2023-02-14T01:26:04;43.67;;;26.15;;
48667;SDS011;34453;52.198;5.004;2023-02-14T01:28:29;41.28;;;25.13;;
48667;SDS011;34453;52.198;5.004;2023-02-14T01:30:55;44.05;;;26.02;;
48667;SDS011;34453;52.198;5.004;2023-02-14T01:33:20;49.25;;;28.23;;
48667;SDS011;34453;52.198;5.004;2023-02-14T01:35:47;48.72;;;27.40;;
48667;SDS011;34453;52.198;5.004;2023-02-14T01:38:13;54.08;;;28.33;;
48667;SDS011;34453;52.198;5.004;2023-02-14T01:40:44;51.38;;;27.30;;
48667;SDS011;34453;52.198;5.004;2023-02-14T01:43:15;45.47;;;27.35;;
48667;SDS011;34453;52.198;5.004;2023-02-14T01:45:40;51.67;;;27.15;;
48667;SDS011;34453;52.198;5.004;2023-02-14T01:48:06;59.35;;;29.60;;
48667;SDS011;34453;52.198;5.004;2023-02-14T01:50:33;55.28;;;28.83;;
48667;SDS011;34453;52.198;5.004;2023-02-14T01:53:03;48.60;;;27.88;;
48667;SDS011;34453;52.198;5.004;2023-02-14T01:55:31;48.88;;;28.77;;
48667;SDS011;34453;52.198;5.004;2023-02-14T01:58:31;52.65;;;29.23;;
48667;SDS011;34453;52.198;5.004;2023-02-14T02:00:49;53.80;;;29.63;;
48667;SDS011;34453;52.198;5.004;2023-02-14T02:03:21;58.65;;;29.73;;
48667;SDS011;34453;52.198;5.004;2023-02-14T02:05:47;51.08;;;27.58;;
48667;SDS011;34453;52.198;5.004;2023-02-14T02:08:13;47.58;;;27.73;;
48667;SDS011;34453;52.198;5.004;2023-02-14T02:10:39;52.08;;;27.33;;
48667;SDS011;34453;52.198;5.004;2023-02-14T02:13:05;45.83;;;27.70;;
48667;SDS011;34453;52.198;5.004;2023-02-14T02:15:32;48.08;;;27.02;;
48667;SDS011;34453;52.198;5.004;2023-02-14T02:18:02;51.28;;;27.45;;
48667;SDS011;34453;52.198;5.004;2023-02-14T02:31:25;45.80;;;25.65;;
48667;SDS011;34453;52.198;5.004;2023-02-14T02:46:43;37.63;;;23.42;;
48667;SDS011;34453;52.198;5.004;2023-02-14T02:51:39;40.92;;;24.80;;
48667;SDS011;34453;52.198;5.004;2023-02-14T02:54:59;40.33;;;23.70;;
48667;SDS011;34453;52.198;5.004;2023-02-14T02:57:19;47.65;;;25.92;;
48667;SDS011;34453;52.198;5.004;2023-02-14T02:59:46;47.60;;;25.65;;
48667;SDS011;34453;52.198;5.004;2023-02-14T03:04:41;48.60;;;24.77;;
48667;SDS011;34453;52.198;5.004;2023-02-14T03:10:00;43.50;;;25.90;;
48667;SDS011;34453;52.198;5.004;2023-02-14T03:17:24;47.90;;;25.90;;
48667;SDS011;34453;52.198;5.004;2023-02-14T03:20:07;48.10;;;26.70;;
48667;SDS011;34453;52.198;5.004;2023-02-14T03:25:16;44.78;;;23.92;;
48667;SDS011;34453;52.198;5.004;2023-02-14T03:27:44;47.35;;;23.70;;
48667;SDS011;34453;52.198;5.004;2023-02-14T03:35:15;41.28;;;23.92;;
48667;SDS011;34453;52.198;5.004;2023-02-14T03:40:18;47.63;;;24.25;;
48667;SDS011;34453;52.198;5.004;2023-02-14T03:42:49;44.53;;;24.63;;
48667;SDS011;34453;52.198;5.004;2023-02-14T03:45:17;39.53;;;23.25;;
48667;SDS011;34453;52.198;5.004;2023-02-14T03:47:44;48.53;;;24.15;;
48667;SDS011;34453;52.198;5.004;2023-02-14T03:50:15;40.28;;;23.40;;
48667;SDS011;34453;52.198;5.004;2023-02-14T03:52:41;38.90;;;23.75;;
48667;SDS011;34453;52.198;5.004;2023-02-14T03:55:07;43.45;;;24.20;;
48667;SDS011;34453;52.198;5.004;2023-02-14T04:00:09;40.95;;;23.17;;
48667;SDS011;34453;52.198;5.004;2023-02-14T04:02:44;35.33;;;21.58;;
48667;SDS011;34453;52.198;5.004;2023-02-14T04:05:15;38.53;;;24.45;;
48667;SDS011;34453;52.198;5.004;2023-02-14T04:07:45;42.75;;;23.35;;
48667;SDS011;34453;52.198;5.004;2023-02-14T04:10:11;38.00;;;20.65;;
48667;SDS011;34453;52.198;5.004;2023-02-14T04:12:36;38.88;;;22.35;;
48667;SDS011;34453;52.198;5.004;2023-02-14T04:15:01;41.67;;;24.67;;
48667;SDS011;34453;52.198;5.004;2023-02-14T04:17:27;42.03;;;24.17;;
48667;SDS011;34453;52.198;5.004;2023-02-14T04:20:11;38.03;;;21.10;;
48667;SDS011;34453;52.198;5.004;2023-02-14T04:22:36;41.65;;;23.38;;
48667;SDS011;34453;52.198;5.004;2023-02-14T04:25:01;39.03;;;22.60;;
48667;SDS011;34453;52.198;5.004;2023-02-14T04:27:26;41.50;;;22.63;;
48667;SDS011;34453;52.198;5.004;2023-02-14T04:29:52;38.63;;;21.58;;
48667;SDS011;34453;52.198;5.004;2023-02-14T04:32:18;36.78;;;20.55;;
48667;SDS011;34453;52.198;5.004;2023-02-14T04:34:44;33.05;;;19.58;;
48667;SDS011;34453;52.198;5.004;2023-02-14T04:37:09;50.20;;;22.05;;
48667;SDS011;34453;52.198;5.004;2023-02-14T04:39:34;33.88;;;20.13;;
48667;SDS011;34453;52.198;5.004;2023-02-14T04:42:00;30.88;;;19.35;;
48667;SDS011;34453;52.198;5.004;2023-02-14T04:44:26;28.70;;;18.90;;
48667;SDS011;34453;52.198;5.004;2023-02-14T04:46:52;31.13;;;18.30;;
48667;SDS011;34453;52.198;5.004;2023-02-14T04:49:17;30.83;;;19.25;;
48667;SDS011;34453;52.198;5.004;2023-02-14T04:51:43;26.70;;;18.00;;
48667;SDS011;34453;52.198;5.004;2023-02-14T04:54:08;27.80;;;17.88;;
48667;SDS011;34453;52.198;5.004;2023-02-14T04:56:33;29.40;;;18.17;;
48667;SDS011;34453;52.198;5.004;2023-02-14T04:58:59;26.65;;;17.10;;
48667;SDS011;34453;52.198;5.004;2023-02-14T05:01:24;15.68;;;11.02;;
48667;SDS011;34453;52.198;5.004;2023-02-14T05:03:49;19.45;;;13.15;;
48667;SDS011;34453;52.198;5.004;2023-02-14T05:06:15;17.63;;;13.55;;
48667;SDS011;34453;52.198;5.004;2023-02-14T05:08:40;18.00;;;11.80;;
48667;SDS011;34453;52.198;5.004;2023-02-14T05:11:05;21.10;;;14.68;;
48667;SDS011;34453;52.198;5.004;2023-02-14T05:13:30;24.42;;;15.60;;
48667;SDS011;34453;52.198;5.004;2023-02-14T05:15:56;23.45;;;14.48;;
48667;SDS011;34453;52.198;5.004;2023-02-14T05:18:21;21.30;;;13.88;;
48667;SDS011;34453;52.198;5.004;2023-02-14T05:20:50;25.42;;;15.60;;
48667;SDS011;34453;52.198;5.004;2023-02-14T05:23:16;27.35;;;18.80;;
48667;SDS011;34453;52.198;5.004;2023-02-14T05:25:41;29.10;;;17.90;;
48667;SDS011;34453;52.198;5.004;2023-02-14T05:28:07;27.67;;;16.92;;
48667;SDS011;34453;52.198;5.004;2023-02-14T05:30:33;26.65;;;17.33;;
48667;SDS011;34453;52.198;5.004;2023-02-14T05:32:59;28.35;;;18.10;;
48667;SDS011;34453;52.198;5.004;2023-02-14T05:35:24;34.60;;;17.83;;
48667;SDS011;34453;52.198;5.004;2023-02-14T05:37:49;30.13;;;18.42;;
48667;SDS011;34453;52.198;5.004;2023-02-14T05:40:14;23.23;;;15.75;;
48667;SDS011;34453;52.198;5.004;2023-02-14T05:42:40;29.27;;;17.10;;
48667;SDS011;34453;52.198;5.004;2023-02-14T05:45:06;33.15;;;17.65;;
48667;SDS011;34453;52.198;5.004;2023-02-14T05:47:31;26.00;;;16.55;;
48667;SDS011;34453;52.198;5.004;2023-02-14T05:49:56;21.75;;;14.45;;
48667;SDS011;34453;52.198;5.004;2023-02-14T05:52:22;25.42;;;11.73;;
48667;SDS011;34453;52.198;5.004;2023-02-14T05:54:47;17.08;;;12.35;;
48667;SDS011;34453;52.198;5.004;2023-02-14T05:57:13;14.40;;;10.25;;
48667;SDS011;34453;52.198;5.004;2023-02-14T05:59:38;13.63;;;10.07;;
48667;SDS011;34453;52.198;5.004;2023-02-14T06:02:03;27.80;;;10.35;;
48667;SDS011;34453;52.198;5.004;2023-02-14T06:04:28;15.70;;;11.88;;
48667;SDS011;34453;52.198;5.004;2023-02-14T06:06:54;17.63;;;12.48;;
48667;SDS011;34453;52.198;5.004;2023-02-14T06:09:19;58.90;;;15.38;;
48667;SDS011;34453;52.198;5.004;2023-02-14T06:11:44;21.05;;;13.95;;
48667;SDS011;34453;52.198;5.004;2023-02-14T06:14:10;23.33;;;12.85;;
48667;SDS011;34453;52.198;5.004;2023-02-14T06:16:35;19.67;;;12.77;;
48667;SDS011;34453;52.198;5.004;2023-02-14T06:19:00;18.52;;;12.23;;
48667;SDS011;34453;52.198;5.004;2023-02-14T06:21:25;22.85;;;12.35;;
48667;SDS011;34453;52.198;5.004;2023-02-14T06:23:51;121.97;;;12.93;;
48667;SDS011;34453;52.198;5.004;2023-02-14T06:26:16;37.90;;;11.43;;
48667;SDS011;34453;52.198;5.004;2023-02-14T06:28:41;13.05;;;9.93;;
48667;SDS011;34453;52.198;5.004;2023-02-14T06:31:07;60.50;;;12.23;;
48667;SDS011;34453;52.198;5.004;2023-02-14T06:33:32;15.32;;;11.45;;
48667;SDS011;34453;52.198;5.004;2023-02-14T06:35:57;40.80;;;10.50;;
48667;SDS011;34453;52.198;5.004;2023-02-14T06:38:23;14.73;;;8.90;;
48667;SDS011;34453;52.198;5.004;2023-02-14T06:40:48;50.78;;;11.07;;
48667;SDS011;34453;52.198;5.004;2023-02-14T06:43:13;24.17;;;11.77;;
48667;SDS011;34453;52.198;5.004;2023-02-14T06:45:39;29.52;;;12.15;;
48667;SDS011;34453;52.198;5.004;2023-02-14T06:48:07;29.38;;;13.52;;
48667;SDS011;34453;52.198;5.004;2023-02-14T06:50:33;29.25;;;13.38;;
48667;SDS011;34453;52.198;5.004;2023-02-14T06:52:59;53.22;;;16.17;;
48667;SDS011;34453;52.198;5.004;2023-02-14T06:55:24;19.40;;;13.95;;
48667;SDS011;34453;52.198;5.004;2023-02-14T06:57:49;25.52;;;13.85;;
48667;SDS011;34453;52.198;5.004;2023-02-14T07:00:15;48.17;;;14.23;;
48667;SDS011;34453;52.198;5.004;2023-02-14T07:02:40;60.08;;;13.60;;
48667;SDS011;34453;52.198;5.004;2023-02-14T07:05:05;18.38;;;11.10;;
48667;SDS011;34453;52.198;5.004;2023-02-14T07:07:31;22.48;;;12.52;;
48667;SDS011;34453;52.198;5.004;2023-02-14T07:09:56;63.78;;;13.60;;
48667;SDS011;34453;52.198;5.004;2023-02-14T07:12:21;32.00;;;12.23;;
48667;SDS011;34453;52.198;5.004;2023-02-14T07:14:47;49.15;;;14.40;;
48667;SDS011;34453;52.198;5.004;2023-02-14T07:17:12;61.08;;;14.18;;
48667;SDS011;34453;52.198;5.004;2023-02-14T07:19:37;40.35;;;13.70;;
48667;SDS011;34453;52.198;5.004;2023-02-14T07:22:02;23.85;;;13.10;;
48667;SDS011;34453;52.198;5.004;2023-02-14T07:24:28;92.85;;;14.90;;
48667;SDS011;34453;52.198;5.004;2023-02-14T07:26:54;16.95;;;11.77;;
48667;SDS011;34453;52.198;5.004;2023-02-14T07:29:19;17.40;;;12.52;;
48667;SDS011;34453;52.198;5.004;2023-02-14T07:31:44;53.38;;;14.00;;
48667;SDS011;34453;52.198;5.004;2023-02-14T07:34:09;23.83;;;12.52;;
48667;SDS011;34453;52.198;5.004;2023-02-14T07:36:35;19.77;;;13.57;;
48667;SDS011;34453;52.198;5.004;2023-02-14T07:39:01;16.27;;;13.00;;
48667;SDS011;34453;52.198;5.004;2023-02-14T07:41:26;22.98;;;15.73;;
48667;SDS011;34453;52.198;5.004;2023-02-14T07:43:51;22.40;;;15.23;;
48667;SDS011;34453;52.198;5.004;2023-02-14T07:46:17;26.83;;;15.88;;
48667;SDS011;34453;52.198;5.004;2023-02-14T07:48:42;16.05;;;12.98;;
48667;SDS011;34453;52.198;5.004;2023-02-14T07:51:08;12.85;;;11.02;;
48667;SDS011;34453;52.198;5.004;2023-02-14T07:53:33;20.35;;;13.85;;
48667;SDS011;34453;52.198;5.004;2023-02-14T07:55:58;13.02;;;11.55;;
48667;SDS011;34453;52.198;5.004;2023-02-14T07:58:23;21.48;;;15.73;;
48667;SDS011;34453;52.198;5.004;2023-02-14T08:00:49;32.28;;;20.95;;
48667;SDS011;34453;52.198;5.004;2023-02-14T08:03:15;24.15;;;16.92;;
48667;SDS011;34453;52.198;5.004;2023-02-14T08:05:40;30.80;;;17.92;;
48667;SDS011;34453;52.198;5.004;2023-02-14T08:08:05;25.83;;;18.25;;
48667;SDS011;34453;52.198;5.004;2023-02-14T08:10:31;24.88;;;16.50;;
48667;SDS011;34453;52.198;5.004;2023-02-14T08:12:56;27.05;;;16.92;;
48667;SDS011;34453;52.198;5.004;2023-02-14T08:15:25;26.67;;;17.35;;
48667;SDS011;34453;52.198;5.004;2023-02-14T08:18:08;33.47;;;16.65;;
48667;SDS011;34453;52.198;5.004;2023-02-14T08:20:34;28.02;;;16.75;;
48667;SDS011;34453;52.198;5.004;2023-02-14T08:22:59;25.38;;;16.33;;
48667;SDS011;34453;52.198;5.004;2023-02-14T08:25:24;20.77;;;14.32;;
48667;SDS011;34453;52.198;5.004;2023-02-14T08:27:50;22.13;;;16.23;;
48667;SDS011;34453;52.198;5.004;2023-02-14T08:30:15;18.85;;;14.77;;
48667;SDS011;34453;52.198;5.004;2023-02-14T08:32:40;19.73;;;14.38;;
48667;SDS011;34453;52.198;5.004;2023-02-14T08:35:06;39.17;;;24.05;;
48667;SDS011;34453;52.198;5.004;2023-02-14T08:37:31;39.35;;;24.85;;
48667;SDS011;34453;52.198;5.004;2023-02-14T08:39:56;35.63;;;21.38;;
48667;SDS011;34453;52.198;5.004;2023-02-14T08:42:22;32.65;;;22.73;;
48667;SDS011;34453;52.198;5.004;2023-02-14T08:44:47;27.48;;;19.95;;
48667;SDS011;34453;52.198;5.004;2023-02-14T08:47:12;30.33;;;20.55;;
48667;SDS011;34453;52.198;5.004;2023-02-14T08:49:37;47.47;;;27.52;;
48667;SDS011;34453;52.198;5.004;2023-02-14T08:52:03;44.90;;;27.38;;
48667;SDS011;34453;52.198;5.004;2023-02-14T08:54:28;50.67;;;29.58;;
48667;SDS011;34453;52.198;5.004;2023-02-14T08:56:53;51.55;;;30.77;;
48667;SDS011;34453;52.198;5.004;2023-02-14T08:59:19;49.05;;;30.15;;
48667;SDS011;34453;52.198;5.004;2023-02-14T09:01:44;49.58;;;30.17;;
48667;SDS011;34453;52.198;5.004;2023-02-14T09:04:09;50.33;;;30.13;;
48667;SDS011;34453;52.198;5.004;2023-02-14T09:06:36;52.92;;;30.65;;
48667;SDS011;34453;52.198;5.004;2023-02-14T09:09:01;56.03;;;31.30;;
48667;SDS011;34453;52.198;5.004;2023-02-14T09:11:27;54.30;;;30.25;;
48667;SDS011;34453;52.198;5.004;2023-02-14T09:13:52;54.03;;;30.50;;
48667;SDS011;34453;52.198;5.004;2023-02-14T09:16:18;52.08;;;31.05;;
48667;SDS011;34453;52.198;5.004;2023-02-14T09:18:44;58.70;;;31.60;;
48667;SDS011;34453;52.198;5.004;2023-02-14T09:21:10;56.42;;;30.55;;
48667;SDS011;34453;52.198;5.004;2023-02-14T09:23:36;73.63;;;39.75;;
48667;SDS011;34453;52.198;5.004;2023-02-14T09:26:02;97.25;;;47.58;;
48667;SDS011;34453;52.198;5.004;2023-02-14T09:28:28;58.75;;;33.92;;
48667;SDS011;34453;52.198;5.004;2023-02-14T09:30:53;64.43;;;34.05;;
48667;SDS011;34453;52.198;5.004;2023-02-14T09:33:19;57.22;;;31.95;;
48667;SDS011;34453;52.198;5.004;2023-02-14T09:35:44;59.47;;;33.58;;
48667;SDS011;34453;52.198;5.004;2023-02-14T09:38:28;60.00;;;32.22;;
48667;SDS011;34453;52.198;5.004;2023-02-14T09:40:53;55.90;;;33.72;;
48667;SDS011;34453;52.198;5.004;2023-02-14T09:44:03;55.60;;;31.88;;
48667;SDS011;34453;52.198;5.004;2023-02-14T09:46:08;53.05;;;31.98;;
48667;SDS011;34453;52.198;5.004;2023-02-14T09:48:37;56.45;;;31.25;;
48667;SDS011;34453;52.198;5.004;2023-02-14T09:51:07;51.90;;;31.52;;
48667;SDS011;34453;52.198;5.004;2023-02-14T09:53:35;52.28;;;31.48;;
48667;SDS011;34453;52.198;5.004;2023-02-14T09:58:52;51.42;;;31.35;;
48667;SDS011;34453;52.198;5.004;2023-02-14T10:03:52;49.38;;;28.05;;
48667;SDS011;34453;52.198;5.004;2023-02-14T10:06:25;46.28;;;28.65;;
48667;SDS011;34453;52.198;5.004;2023-02-14T10:12:02;52.33;;;28.15;;
48667;SDS011;34453;52.198;5.004;2023-02-14T10:14:28;50.47;;;27.10;;
48667;SDS011;34453;52.198;5.004;2023-02-14T10:16:57;47.92;;;26.00;;
48667;SDS011;34453;52.198;5.004;2023-02-14T10:21:58;42.15;;;25.10;;
48667;SDS011;34453;52.198;5.004;2023-02-14T10:24:32;42.25;;;27.13;;
48667;SDS011;34453;52.198;5.004;2023-02-14T10:27:08;45.78;;;25.92;;
48667;SDS011;34453;52.198;5.004;2023-02-14T10:29:35;41.60;;;26.45;;
48667;SDS011;34453;52.198;5.004;2023-02-14T10:32:01;39.63;;;25.45;;
48667;SDS011;34453;52.198;5.004;2023-02-14T10:34:46;40.55;;;24.73;;
48667;SDS011;34453;52.198;5.004;2023-02-14T10:40:19;39.42;;;25.23;;
48667;SDS011;34453;52.198;5.004;2023-02-14T10:55:43;39.83;;;24.90;;
48667;SDS011;34453;52.198;5.004;2023-02-14T10:58:12;45.22;;;26.25;;
48667;SDS011;34453;52.198;5.004;2023-02-14T11:00:40;43.65;;;26.80;;
48667;SDS011;34453;52.198;5.004;2023-02-14T11:03:07;45.78;;;26.40;;
48667;SDS011;34453;52.198;5.004;2023-02-14T11:05:35;42.47;;;24.42;;
48667;SDS011;34453;52.198;5.004;2023-02-14T11:08:21;42.05;;;25.58;;
48667;SDS011;34453;52.198;5.004;2023-02-14T11:10:48;46.25;;;26.63;;
48667;SDS011;34453;52.198;5.004;2023-02-14T11:13:35;44.20;;;27.42;;
48667;SDS011;34453;52.198;5.004;2023-02-14T11:16:04;44.75;;;27.65;;
48667;SDS011;34453;52.198;5.004;2023-02-14T11:18:30;46.65;;;27.02;;
48667;SDS011;34453;52.198;5.004;2023-02-14T11:23:25;42.75;;;25.58;;
48667;SDS011;34453;52.198;5.004;2023-02-14T11:25:51;50.60;;;28.17;;
48667;SDS011;34453;52.198;5.004;2023-02-14T11:28:19;47.78;;;28.90;;
48667;SDS011;34453;52.198;5.004;2023-02-14T11:30:46;46.42;;;27.35;;
48667;SDS011;34453;52.198;5.004;2023-02-14T11:33:12;43.47;;;26.35;;
48667;SDS011;34453;52.198;5.004;2023-02-14T11:35:37;51.03;;;26.55;;
48667;SDS011;34453;52.198;5.004;2023-02-14T11:38:04;46.53;;;27.42;;
48667;SDS011;34453;52.198;5.004;2023-02-14T11:42:59;40.55;;;27.40;;
48667;SDS011;34453;52.198;5.004;2023-02-14T11:45:35;47.28;;;26.35;;
48667;SDS011;34453;52.198;5.004;2023-02-14T11:50:52;37.33;;;25.30;;
48667;SDS011;34453;52.198;5.004;2023-02-14T11:53:19;46.25;;;26.92;;
48667;SDS011;34453;52.198;5.004;2023-02-14T11:55:50;39.47;;;24.92;;
48667;SDS011;34453;52.198;5.004;2023-02-14T11:58:30;40.33;;;25.40;;
48667;SDS011;34453;52.198;5.004;2023-02-14T12:00:57;40.47;;;26.70;;
48667;SDS011;34453;52.198;5.004;2023-02-14T12:03:23;40.10;;;24.80;;
48667;SDS011;34453;52.198;5.004;2023-02-14T12:05:50;35.90;;;24.25;;
48667;SDS011;34453;52.198;5.004;2023-02-14T12:08:22;36.28;;;23.92;;
48667;SDS011;34453;52.198;5.004;2023-02-14T12:10:59;39.50;;;23.77;;
48667;SDS011;34453;52.198;5.004;2023-02-14T12:13:25;39.60;;;24.75;;
48667;SDS011;34453;52.198;5.004;2023-02-14T12:15:51;37.95;;;24.95;;
48667;SDS011;34453;52.198;5.004;2023-02-14T12:20:59;40.40;;;24.35;;
48667;SDS011;34453;52.198;5.004;2023-02-14T12:23:43;34.17;;;22.80;;
48667;SDS011;34453;52.198;5.004;2023-02-14T12:31:36;38.08;;;23.20;;
48667;SDS011;34453;52.198;5.004;2023-02-14T12:34:02;41.38;;;25.52;;
48667;SDS011;34453;52.198;5.004;2023-02-14T12:36:41;33.55;;;22.98;;
48667;SDS011;34453;52.198;5.004;2023-02-14T12:47:40;36.80;;;22.65;;
48667;SDS011;34453;52.198;5.004;2023-02-14T12:54:59;34.60;;;23.92;;
48667;SDS011;34453;52.198;5.004;2023-02-14T12:57:39;34.83;;;23.25;;
48667;SDS011;34453;52.198;5.004;2023-02-14T13:08:09;35.05;;;22.65;;
48667;SDS011;34453;52.198;5.004;2023-02-14T13:10:43;37.78;;;23.35;;
48667;SDS011;34453;52.198;5.004;2023-02-14T13:13:14;35.50;;;21.67;;
48667;SDS011;34453;52.198;5.004;2023-02-14T13:20:48;37.42;;;23.35;;
48667;SDS011;34453;52.198;5.004;2023-02-14T13:23:15;37.35;;;23.05;;
48667;SDS011;34453;52.198;5.004;2023-02-14T13:25:42;32.42;;;21.27;;
48667;SDS011;34453;52.198;5.004;2023-02-14T13:28:13;35.83;;;22.50;;
48667;SDS011;34453;52.198;5.004;2023-02-14T13:30:39;31.30;;;21.38;;
48667;SDS011;34453;52.198;5.004;2023-02-14T13:33:30;35.53;;;21.58;;
48667;SDS011;34453;52.198;5.004;2023-02-14T13:35:57;35.22;;;22.13;;
48667;SDS011;34453;52.198;5.004;2023-02-14T13:38:23;39.30;;;21.10;;
48667;SDS011;34453;52.198;5.004;2023-02-14T13:40:50;34.38;;;22.48;;
48667;SDS011;34453;52.198;5.004;2023-02-14T13:45:59;30.42;;;19.75;;
48667;SDS011;34453;52.198;5.004;2023-02-14T13:48:25;39.33;;;22.27;;
48667;SDS011;34453;52.198;5.004;2023-02-14T13:56:01;35.42;;;22.15;;
48667;SDS011;34453;52.198;5.004;2023-02-14T13:58:27;37.60;;;23.88;;
48667;SDS011;34453;52.198;5.004;2023-02-14T14:00:52;33.00;;;20.27;;
48667;SDS011;34453;52.198;5.004;2023-02-14T14:05:57;31.95;;;22.00;;
48667;SDS011;34453;52.198;5.004;2023-02-14T14:16:22;31.17;;;20.52;;
48667;SDS011;34453;52.198;5.004;2023-02-14T14:18:51;31.45;;;20.17;;
48667;SDS011;34453;52.198;5.004;2023-02-14T14:21:23;31.95;;;20.80;;
48667;SDS011;34453;52.198;5.004;2023-02-14T14:24:34;33.58;;;20.92;;
48667;SDS011;34453;52.198;5.004;2023-02-14T14:26:35;32.67;;;22.17;;
48667;SDS011;34453;52.198;5.004;2023-02-14T14:29:02;32.25;;;20.02;;
48667;SDS011;34453;52.198;5.004;2023-02-14T14:31:33;31.50;;;22.30;;
48667;SDS011;34453;52.198;5.004;2023-02-14T14:33:59;35.03;;;20.80;;
48667;SDS011;34453;52.198;5.004;2023-02-14T14:36:25;39.03;;;23.15;;
48667;SDS011;34453;52.198;5.004;2023-02-14T14:38:50;35.03;;;22.27;;
48667;SDS011;34453;52.198;5.004;2023-02-14T14:41:17;29.35;;;20.05;;
48667;SDS011;34453;52.198;5.004;2023-02-14T14:43:43;31.13;;;21.45;;
48667;SDS011;34453;52.198;5.004;2023-02-14T14:46:09;33.35;;;20.67;;
48667;SDS011;34453;52.198;5.004;2023-02-14T14:48:37;30.05;;;19.88;;
48667;SDS011;34453;52.198;5.004;2023-02-14T14:51:03;33.15;;;20.25;;
48667;SDS011;34453;52.198;5.004;2023-02-14T14:53:40;34.80;;;20.80;;
48667;SDS011;34453;52.198;5.004;2023-02-14T14:56:27;33.70;;;20.70;;
48667;SDS011;34453;52.198;5.004;2023-02-14T14:58:55;36.35;;;21.63;;
48667;SDS011;34453;52.198;5.004;2023-02-14T15:01:37;33.20;;;22.02;;
48667;SDS011;34453;52.198;5.004;2023-02-14T15:04:35;31.27;;;21.63;;
48667;SDS011;34453;52.198;5.004;2023-02-14T15:06:58;36.13;;;21.38;;
48667;SDS011;34453;52.198;5.004;2023-02-14T15:09:39;34.75;;;22.52;;
48667;SDS011;34453;52.198;5.004;2023-02-14T15:12:04;37.28;;;22.30;;
48667;SDS011;34453;52.198;5.004;2023-02-14T15:14:56;29.85;;;21.42;;
48667;SDS011;34453;52.198;5.004;2023-02-14T15:17:25;39.55;;;23.00;;
48667;SDS011;34453;52.198;5.004;2023-02-14T15:19:51;36.88;;;22.50;;
48667;SDS011;34453;52.198;5.004;2023-02-14T15:22:25;32.33;;;20.90;;
48667;SDS011;34453;52.198;5.004;2023-02-14T15:24:50;34.90;;;22.38;;
48667;SDS011;34453;52.198;5.004;2023-02-14T15:27:17;31.85;;;21.80;;
48667;SDS011;34453;52.198;5.004;2023-02-14T15:29:51;39.03;;;23.25;;
48667;SDS011;34453;52.198;5.004;2023-02-14T15:32:17;34.05;;;21.67;;
48667;SDS011;34453;52.198;5.004;2023-02-14T15:34:42;31.98;;;20.92;;
48667;SDS011;34453;52.198;5.004;2023-02-14T15:37:09;35.05;;;23.33;;
48667;SDS011;34453;52.198;5.004;2023-02-14T15:39:36;37.40;;;24.70;;
48667;SDS011;34453;52.198;5.004;2023-02-14T15:42:02;33.10;;;21.63;;
48667;SDS011;34453;52.198;5.004;2023-02-14T15:44:28;33.90;;;23.23;;
48667;SDS011;34453;52.198;5.004;2023-02-14T15:46:55;32.65;;;22.10;;
48667;SDS011;34453;52.198;5.004;2023-02-14T15:49:21;35.65;;;22.15;;
48667;SDS011;34453;52.198;5.004;2023-02-14T15:51:47;30.67;;;22.10;;
48667;SDS011;34453;52.198;5.004;2023-02-14T15:54:21;33.20;;;21.42;;
48667;SDS011;34453;52.198;5.004;2023-02-14T15:56:48;32.00;;;22.15;;
48667;SDS011;34453;52.198;5.004;2023-02-14T15:59:21;36.67;;;23.02;;
48667;SDS011;34453;52.198;5.004;2023-02-14T16:04:25;34.65;;;21.50;;
48667;SDS011;34453;52.198;5.004;2023-02-14T16:09:34;35.95;;;23.90;;
48667;SDS011;34453;52.198;5.004;2023-02-14T16:12:20;37.60;;;24.35;;
48667;SDS011;34453;52.198;5.004;2023-02-14T16:14:58;38.80;;;24.25;;
48667;SDS011;34453;52.198;5.004;2023-02-14T16:17:33;41.90;;;23.90;;
48667;SDS011;34453;52.198;5.004;2023-02-14T16:19:59;41.20;;;25.48;;
48667;SDS011;34453;52.198;5.004;2023-02-14T16:22:44;35.03;;;22.90;;
48667;SDS011;34453;52.198;5.004;2023-02-14T16:25:09;46.75;;;23.65;;
48667;SDS011;34453;52.198;5.004;2023-02-14T16:27:35;38.47;;;23.85;;
48667;SDS011;34453;52.198;5.004;2023-02-14T16:30:00;37.72;;;23.15;;
48667;SDS011;34453;52.198;5.004;2023-02-14T16:32:25;36.53;;;22.90;;
48667;SDS011;34453;52.198;5.004;2023-02-14T16:34:51;36.28;;;23.15;;
48667;SDS011;34453;52.198;5.004;2023-02-14T16:37:34;30.70;;;21.70;;
48667;SDS011;34453;52.198;5.004;2023-02-14T16:39:59;34.95;;;21.80;;
48667;SDS011;34453;52.198;5.004;2023-02-14T16:42:25;39.60;;;22.25;;
48667;SDS011;34453;52.198;5.004;2023-02-14T16:44:51;36.53;;;23.27;;
48667;SDS011;34453;52.198;5.004;2023-02-14T16:47:17;39.42;;;23.75;;